createdAt,value
2019-04-26T00:00:07.831Z,29.13
2019-04-26T00:02:51.066Z,30.03
2019-04-26T00:05:33.870Z,29.17
2019-04-26T00:07:55.369Z,30.93
2019-04-26T00:10:58.044Z,29.57
2019-04-26T00:13:51.031Z,30.97
2019-04-26T00:16:32.922Z,30.27
2019-04-26T00:19:04.247Z,30.07
2019-04-26T00:21:36.998Z,30.47
2019-04-26T00:24:08.566Z,31.07
2019-04-26T00:26:40.476Z,31.43
2019-04-26T00:29:12.677Z,32.50
2019-04-26T00:31:44.184Z,33.43
2019-04-26T00:34:18.213Z,32.57
2019-04-26T00:36:49.582Z,31.10
2019-04-26T00:39:20.863Z,34.83
2019-04-26T00:41:52.081Z,33.37
2019-04-26T00:44:23.248Z,34.40
2019-04-26T00:46:57.430Z,34.37
2019-04-26T00:49:42.772Z,33.27
2019-04-26T00:52:04.238Z,36.63
2019-04-26T00:54:36.572Z,35.10
2019-04-26T00:57:08.461Z,34.80
2019-04-26T00:59:40.560Z,35.13
2019-04-26T01:02:20.644Z,33.17
2019-04-26T01:04:51.945Z,32.33
2019-04-26T01:07:23.246Z,35.63
2019-04-26T01:09:54.668Z,33.50
2019-04-26T01:12:26.128Z,34.00
2019-04-26T01:14:59.055Z,36.63
2019-04-26T01:17:30.369Z,36.10
2019-04-26T01:20:03.002Z,34.20
2019-04-26T01:22:37.133Z,34.90
2019-04-26T01:25:08.295Z,32.27
2019-04-26T01:27:39.788Z,31.23
2019-04-26T01:30:11.780Z,32.60
2019-04-26T01:32:44.754Z,29.57
2019-04-26T01:35:15.994Z,31.07
2019-04-26T01:37:48.418Z,31.13
2019-04-26T01:40:22.046Z,32.07
2019-04-26T01:42:58.442Z,30.43
2019-04-26T01:45:53.125Z,30.43
2019-04-26T01:48:43.618Z,30.40
2019-04-26T01:51:22.827Z,32.57
2019-04-26T01:53:54.269Z,29.97
2019-04-26T01:56:31.339Z,32.43
2019-04-26T01:59:03.241Z,32.03
2019-04-26T02:01:43.348Z,30.27
2019-04-26T02:04:14.704Z,32.47
2019-04-26T02:06:46.374Z,32.77
2019-04-26T02:09:17.619Z,33.60
2019-04-26T02:11:48.835Z,33.17
2019-04-26T02:14:20.404Z,30.03
2019-04-26T02:16:52.704Z,31.43
2019-04-26T02:19:24.849Z,33.17
2019-04-26T02:22:04.192Z,33.67
2019-04-26T02:24:39.094Z,31.60
2019-04-26T02:27:24.729Z,31.27
2019-04-26T02:29:57.365Z,31.90
2019-04-26T02:32:31.385Z,29.30
2019-04-26T02:35:04.413Z,34.13
2019-04-26T02:37:36.920Z,35.07
2019-04-26T02:40:13.167Z,29.90
2019-04-26T02:42:47.749Z,29.97
2019-04-26T02:45:49.273Z,29.97
2019-04-26T02:48:42.156Z,30.60
2019-04-26T02:51:18.420Z,31.00
2019-04-26T02:54:13.980Z,29.80
2019-04-26T02:56:48.213Z,28.77
2019-04-26T02:59:42.407Z,29.83
2019-04-26T03:02:30.275Z,29.90
2019-04-26T03:05:07.680Z,30.03
2019-04-26T03:08:19.429Z,30.27
2019-04-26T03:11:17.741Z,28.20
2019-04-26T03:14:09.535Z,28.03
2019-04-26T03:17:11.141Z,30.40
2019-04-26T03:20:02.433Z,30.37
2019-04-26T03:23:07.581Z,28.57
2019-04-26T03:26:04.320Z,29.63
2019-04-26T03:28:46.557Z,31.97
2019-04-26T03:31:54.295Z,30.70
2019-04-26T03:40:41.043Z,31.97
2019-04-26T03:43:45.841Z,26.50
2019-04-26T03:46:41.172Z,27.17
2019-04-26T03:49:35.716Z,26.70
2019-04-26T03:52:32.224Z,28.53
2019-04-26T03:55:09.241Z,30.67
2019-04-26T03:57:52.930Z,31.47
2019-04-26T04:00:47.030Z,29.63
2019-04-26T04:03:48.018Z,28.97
2019-04-26T04:06:26.561Z,29.63
2019-04-26T04:09:06.489Z,30.53
2019-04-26T04:11:49.082Z,31.30
2019-04-26T04:14:52.524Z,30.57
2019-04-26T04:17:39.630Z,28.27
2019-04-26T04:21:09.928Z,31.23
2019-04-26T04:23:58.243Z,28.60
2019-04-26T04:26:50.683Z,29.33
2019-04-26T04:29:46.499Z,29.90
2019-04-26T04:32:35.481Z,29.70
2019-04-26T04:35:11.322Z,27.90
2019-04-26T04:38:08.079Z,28.73
2019-04-26T04:41:08.577Z,29.47
2019-04-26T04:43:50.939Z,27.43
2019-04-26T04:47:25.052Z,31.20
2019-04-26T04:50:16.967Z,27.33
2019-04-26T04:53:01.009Z,31.20
2019-04-26T04:55:45.203Z,30.83
2019-04-26T04:58:23.570Z,28.20
2019-04-26T05:02:05.019Z,27.70
2019-04-26T05:05:05.504Z,28.37
2019-04-26T05:08:06.854Z,28.80
2019-04-26T05:10:49.842Z,28.00
2019-04-26T05:13:33.655Z,28.47
2019-04-26T05:17:02.599Z,28.97
2019-04-26T05:19:59.837Z,26.93
2019-04-26T05:22:57.404Z,28.60
2019-04-26T05:26:22.135Z,29.27
2019-04-26T05:29:17.320Z,26.67
2019-04-26T05:31:59.041Z,26.87
2019-04-26T05:34:41.403Z,26.87
2019-04-26T05:37:57.267Z,25.47
2019-04-26T05:41:12.320Z,25.53
2019-04-26T05:44:28.860Z,26.73
2019-04-26T05:47:39.561Z,25.77
2019-04-26T05:51:17.964Z,27.20
2019-04-26T05:54:54.036Z,23.70
2019-04-26T05:58:10.179Z,22.30
2019-04-26T06:01:43.121Z,23.50
2019-04-26T06:05:03.467Z,24.00
2019-04-26T06:08:03.027Z,22.97
2019-04-26T06:10:43.927Z,21.73
2019-04-26T06:13:59.960Z,22.37
2019-04-26T06:17:28.619Z,23.17
2019-04-26T06:20:34.571Z,19.60
2019-04-26T06:23:16.724Z,21.23
2019-04-26T06:26:03.354Z,22.07
2019-04-26T06:28:57.494Z,19.37
2019-04-26T06:31:42.039Z,20.07
2019-04-26T06:34:18.800Z,19.53
2019-04-26T06:37:07.427Z,18.13
2019-04-26T06:39:53.392Z,17.33
2019-04-26T06:43:20.486Z,19.03
2019-04-26T06:46:44.311Z,18.47
2019-04-26T06:49:31.555Z,19.20
2019-04-26T06:52:12.407Z,18.20
2019-04-26T06:55:40.452Z,19.43
2019-04-26T06:58:47.421Z,18.23
2019-04-26T07:01:52.483Z,16.33
2019-04-26T07:04:56.303Z,17.57
2019-04-26T07:08:09.212Z,16.97
2019-04-26T07:11:28.885Z,15.30
2019-04-26T07:14:20.023Z,12.50
2019-04-26T07:17:12.122Z,11.67
2019-04-26T07:20:22.785Z,11.60
2019-04-26T07:23:50.339Z,11.13
2019-04-26T07:27:05.962Z,10.10
2019-04-26T07:30:21.820Z,8.57
2019-04-26T07:33:11.285Z,9.20
2019-04-26T07:36:07.666Z,9.13
2019-04-26T07:39:22.335Z,9.07
2019-04-26T07:42:34.079Z,9.20
2019-04-26T07:45:31.777Z,9.23
2019-04-26T07:49:05.975Z,8.90
2019-04-26T07:52:20.026Z,8.63
2019-04-26T07:55:23.220Z,8.67
2019-04-26T07:58:34.817Z,9.13
2019-04-26T08:01:42.469Z,8.87
2019-04-26T08:04:22.318Z,9.57
2019-04-26T08:07:06.268Z,8.70
2019-04-26T08:09:41.251Z,8.67
2019-04-26T08:12:17.052Z,8.97
2019-04-26T08:15:33.664Z,9.33
2019-04-26T08:18:15.163Z,9.00
2019-04-26T08:20:55.721Z,8.77
2019-04-26T08:23:42.039Z,9.57
2019-04-26T08:26:15.515Z,8.70
2019-04-26T08:28:50.926Z,9.03
2019-04-26T08:31:26.233Z,8.93
2019-04-26T08:34:04.604Z,9.57
2019-04-26T08:36:43.776Z,8.53
2019-04-26T08:39:44.294Z,9.30
2019-04-26T08:42:04.659Z,9.10
2019-04-26T08:45:10.337Z,8.77
2019-04-26T08:48:13.743Z,8.03
2019-04-26T08:50:48.701Z,9.60
2019-04-26T08:53:23.759Z,9.03
2019-04-26T08:55:58.915Z,8.43
2019-04-26T08:58:33.771Z,8.50
2019-04-26T09:01:19.712Z,8.40
2019-04-26T09:04:01.362Z,7.93
2019-04-26T09:06:42.874Z,8.50
2019-04-26T09:09:20.885Z,8.50
2019-04-26T09:11:59.831Z,7.47
2019-04-26T09:14:32.800Z,7.50
2019-04-26T09:17:05.533Z,7.37
2019-04-26T09:19:37.595Z,8.07
2019-04-26T09:22:26.433Z,7.27
2019-04-26T09:25:11.939Z,7.63
2019-04-26T09:27:51.401Z,7.40
2019-04-26T09:30:34.598Z,7.57
2019-04-26T09:33:35.829Z,7.77
2019-04-26T09:36:05.921Z,7.80
2019-04-26T09:38:38.061Z,7.60
2019-04-26T09:41:10.214Z,7.63
2019-04-26T09:43:49.357Z,7.50
2019-04-26T09:46:38.856Z,7.90
2019-04-26T09:49:14.679Z,8.00
2019-04-26T09:51:46.766Z,8.10
2019-04-26T09:54:18.983Z,7.27
2019-04-26T09:56:51.268Z,8.27
2019-04-26T09:59:23.655Z,8.07
2019-04-26T10:01:59.428Z,8.10
2019-04-26T10:04:29.477Z,8.07
2019-04-26T10:07:03.294Z,7.90
2019-04-26T10:09:35.678Z,8.10
2019-04-26T10:12:26.970Z,7.70
2019-04-26T10:15:22.312Z,8.17
2019-04-26T10:17:52.804Z,8.63
2019-04-26T10:20:25.127Z,7.50
2019-04-26T10:22:57.100Z,8.13
2019-04-26T10:25:29.390Z,7.27
2019-04-26T10:28:01.565Z,8.03
2019-04-26T10:30:33.799Z,7.10
2019-04-26T10:33:05.840Z,6.90
2019-04-26T10:35:38.173Z,7.80
2019-04-26T10:38:10.364Z,7.00
2019-04-26T10:40:42.557Z,7.03
2019-04-26T10:43:15.107Z,6.93
2019-04-26T10:45:53.586Z,7.37
2019-04-26T10:48:23.092Z,7.03
2019-04-26T10:50:54.800Z,6.80
2019-04-26T10:53:44.398Z,7.67
2019-04-26T10:56:50.871Z,8.00
2019-04-26T10:59:31.670Z,7.27
2019-04-26T11:02:03.316Z,7.47
2019-04-26T11:04:37.312Z,7.30
2019-04-26T11:07:09.477Z,8.90
2019-04-26T11:09:41.852Z,8.80
2019-04-26T11:12:16.336Z,8.53
2019-04-26T11:14:48.720Z,10.63
2019-04-26T11:17:20.380Z,9.50
2019-04-26T11:19:52.849Z,8.83
2019-04-26T11:22:29.216Z,10.17
2019-04-26T11:24:58.731Z,8.63
2019-04-26T11:27:31.258Z,9.33
2019-04-26T11:30:11.594Z,9.07
2019-04-26T11:32:40.176Z,8.63
2019-04-26T11:35:12.507Z,9.37
2019-04-26T11:37:46.445Z,8.67
2019-04-26T11:40:18.679Z,9.10
2019-04-26T11:42:50.914Z,9.00
2019-04-26T11:45:23.161Z,9.60
2019-04-26T11:47:56.548Z,10.10
2019-04-26T11:50:28.638Z,9.43
2019-04-26T11:53:00.459Z,10.07
2019-04-26T11:55:32.882Z,9.80
2019-04-26T11:58:05.067Z,10.40
2019-04-26T12:00:42.404Z,10.03
2019-04-26T12:03:14.604Z,10.27
2019-04-26T12:06:12.722Z,10.33
2019-04-26T12:08:50.513Z,10.90
2019-04-26T12:11:30.355Z,10.70
2019-04-26T12:13:59.513Z,10.30
2019-04-26T12:16:31.449Z,11.93
2019-04-26T12:19:03.300Z,11.77
2019-04-26T12:21:35.457Z,11.70
2019-04-26T12:24:07.265Z,11.67
2019-04-26T12:26:43.092Z,11.03
2019-04-26T12:29:14.686Z,11.13
2019-04-26T12:31:46.377Z,12.30
2019-04-26T12:34:19.107Z,11.17
2019-04-26T12:36:51.672Z,11.80
2019-04-26T12:39:25.208Z,11.33
2019-04-26T12:42:08.170Z,11.13
2019-04-26T12:45:00.860Z,11.47
2019-04-26T12:47:43.238Z,11.20
2019-04-26T12:50:16.561Z,12.27
2019-04-26T12:52:51.288Z,10.80
2019-04-26T12:55:21.470Z,10.70
2019-04-26T12:57:53.233Z,10.70
2019-04-26T13:00:28.349Z,10.10
2019-04-26T13:03:01.527Z,9.00
2019-04-26T13:05:34.403Z,9.40
2019-04-26T13:08:06.819Z,10.03
2019-04-26T13:10:52.653Z,8.90
2019-04-26T13:13:38.216Z,10.10
2019-04-26T13:16:13.878Z,9.37
2019-04-26T13:18:46.970Z,9.50
2019-04-26T13:21:18.313Z,9.63
2019-04-26T13:23:49.951Z,12.10
2019-04-26T13:26:22.016Z,8.73
2019-04-26T13:28:57.088Z,9.73
2019-04-26T13:31:31.473Z,8.80
2019-04-26T13:34:03.058Z,9.67
2019-04-26T13:36:33.657Z,9.90
2019-04-26T13:39:09.354Z,9.30
2019-04-26T13:41:42.356Z,9.83
2019-04-26T13:44:14.021Z,8.77
2019-04-26T13:47:03.788Z,9.30
2019-04-26T13:49:52.589Z,9.50
2019-04-26T13:52:24.820Z,8.93
2019-04-26T13:54:56.578Z,9.47
2019-04-26T13:57:28.787Z,10.30
2019-04-26T14:00:02.479Z,9.63
2019-04-26T14:02:35.177Z,8.50
2019-04-26T14:05:11.020Z,8.80
2019-04-26T14:07:41.774Z,9.27
2019-04-26T14:10:13.624Z,11.17
2019-04-26T14:12:46.207Z,9.03
2019-04-26T14:15:18.792Z,10.43
2019-04-26T14:17:50.771Z,8.43
2019-04-26T14:20:23.306Z,8.47
2019-04-26T14:23:18.001Z,8.33
2019-04-26T14:26:05.234Z,8.53
2019-04-26T14:28:41.918Z,10.13
2019-04-26T14:31:16.536Z,7.97
2019-04-26T14:33:45.940Z,9.87
2019-04-26T14:36:22.722Z,7.83
2019-04-26T14:39:05.224Z,8.43
2019-04-26T14:41:27.367Z,9.90
2019-04-26T14:43:59.346Z,8.23
2019-04-26T14:46:31.699Z,8.33
2019-04-26T14:49:05.665Z,8.30
2019-04-26T14:51:40.417Z,8.03
2019-04-26T14:54:12.511Z,8.33
2019-04-26T14:56:52.075Z,9.47
2019-04-26T14:59:39.399Z,8.60
2019-04-26T15:02:29.585Z,8.63
2019-04-26T15:05:18.120Z,8.20
2019-04-26T15:07:51.973Z,8.10
2019-04-26T15:10:25.534Z,7.70
2019-04-26T15:13:14.262Z,8.77
2019-04-26T15:15:34.634Z,8.73
2019-04-26T15:18:07.365Z,8.80
2019-04-26T15:20:39.197Z,11.40
2019-04-26T15:23:11.098Z,9.33
2019-04-26T15:25:48.263Z,7.83
2019-04-26T15:28:15.997Z,9.10
2019-04-26T15:30:47.940Z,7.97
2019-04-26T15:33:20.086Z,8.57
2019-04-26T15:35:52.269Z,8.10
2019-04-26T15:38:24.360Z,8.10
2019-04-26T15:41:16.643Z,7.70
2019-04-26T15:44:08.176Z,8.20
2019-04-26T15:47:07.826Z,8.20
2019-04-26T15:49:45.144Z,9.03
2019-04-26T15:52:16.477Z,8.13
2019-04-26T15:54:48.266Z,8.20
2019-04-26T15:57:20.135Z,9.13
2019-04-26T15:59:54.431Z,9.30
2019-04-26T16:02:26.554Z,8.30
2019-04-26T16:04:58.362Z,8.60
2019-04-26T16:07:30.196Z,8.00
2019-04-26T16:10:02.353Z,9.07
2019-04-26T16:12:35.150Z,8.13
2019-04-26T16:15:11.416Z,9.33
2019-04-26T16:17:41.291Z,8.40
2019-04-26T16:20:13.614Z,9.10
2019-04-26T16:22:45.603Z,9.03
2019-04-26T16:25:17.997Z,8.20
2019-04-26T16:27:51.267Z,10.17
2019-04-26T16:30:40.257Z,7.57
2019-04-26T16:33:15.833Z,8.40
2019-04-26T16:35:47.262Z,9.10
2019-04-26T16:38:35.474Z,9.27
2019-04-26T16:41:08.226Z,8.87
2019-04-26T16:43:44.684Z,11.33
2019-04-26T16:46:20.197Z,9.23
2019-04-26T16:48:45.419Z,9.73
2019-04-26T16:51:17.165Z,10.73
2019-04-26T16:54:03.661Z,9.47
2019-04-26T16:58:55.165Z,10.73
2019-04-26T17:00:45.532Z,9.50
2019-04-26T17:01:27.235Z,9.50
2019-04-26T17:03:58.845Z,9.10
2019-04-26T17:06:30.475Z,8.90
2019-04-26T17:09:05.249Z,9.80
2019-04-26T17:11:41.113Z,9.77
2019-04-26T17:14:10.930Z,9.27
2019-04-26T17:16:44.411Z,10.43
2019-04-26T17:19:19.659Z,11.20
2019-04-26T17:22:04.569Z,12.73
2019-04-26T17:24:46.920Z,12.27
2019-04-26T17:27:20.283Z,10.40
2019-04-26T17:29:52.936Z,10.33
2019-04-26T17:32:24.946Z,11.13
2019-04-26T17:34:59.485Z,10.60
2019-04-26T17:37:30.569Z,10.93
2019-04-26T17:40:03.417Z,10.57
2019-04-26T17:42:36.453Z,9.70
2019-04-26T17:45:08.018Z,8.47
2019-04-26T17:47:42.734Z,9.17
2019-04-26T17:50:14.888Z,9.47
2019-04-26T17:52:46.656Z,9.07
2019-04-26T17:55:18.549Z,8.53
2019-04-26T17:57:52.393Z,10.30
2019-04-26T18:00:28.667Z,9.77
2019-04-26T18:02:59.235Z,9.13
2019-04-26T18:05:41.987Z,10.30
2019-04-26T18:08:30.591Z,11.80
2019-04-26T18:10:41.344Z,13.37
2019-04-26T18:13:16.065Z,15.80
2019-04-26T18:15:46.867Z,13.60
2019-04-26T18:18:38.439Z,13.27
2019-04-26T18:21:31.511Z,12.07
2019-04-26T18:24:02.898Z,12.53
2019-04-26T18:26:35.014Z,13.43
2019-04-26T18:29:08.091Z,12.30
2019-04-26T18:31:40.057Z,12.43
2019-04-26T18:34:12.794Z,11.70
2019-04-26T18:36:44.628Z,12.03
2019-04-26T18:39:18.015Z,12.67
2019-04-26T18:41:50.158Z,12.60
2019-04-26T18:44:35.379Z,12.50
2019-04-26T18:47:03.756Z,12.60
2019-04-26T18:49:36.758Z,11.97
2019-04-26T18:52:08.931Z,13.03
2019-04-26T18:54:51.353Z,23.23
2019-04-26T18:57:23.878Z,12.57
2019-04-26T18:59:55.223Z,12.97
2019-04-26T19:02:27.294Z,12.83
2019-04-26T19:04:59.101Z,12.57
2019-04-26T19:07:32.355Z,14.83
2019-04-26T19:10:05.478Z,14.13
2019-04-26T19:12:38.856Z,15.50
2019-04-26T19:15:41.738Z,20.80
2019-04-26T19:18:42.430Z,16.60
2019-04-26T19:21:39.294Z,16.17
2019-04-26T19:24:17.701Z,18.00
2019-04-26T19:26:49.606Z,16.20
2019-04-26T19:29:22.463Z,16.20
2019-04-26T19:31:52.265Z,14.93
2019-04-26T19:34:26.030Z,17.93
2019-04-26T19:36:59.756Z,20.10
2019-04-26T19:39:33.260Z,18.20
2019-04-26T19:42:09.158Z,16.47
2019-04-26T19:44:42.096Z,17.90
2019-04-26T19:47:30.257Z,23.73
2019-04-26T19:50:11.312Z,19.10
2019-04-26T19:52:55.857Z,15.70
2019-04-26T19:55:54.892Z,15.00
2019-04-26T19:58:27.801Z,13.80
2019-04-26T20:00:59.635Z,15.67
2019-04-26T20:03:33.824Z,16.80
2019-04-26T20:06:05.522Z,16.53
2019-04-26T20:08:44.464Z,15.13
2019-04-26T20:11:12.824Z,15.43
2019-04-26T20:13:46.949Z,16.07
2019-04-26T20:16:15.912Z,16.53
2019-04-26T20:18:47.111Z,17.63
2019-04-26T20:21:18.506Z,18.13
2019-04-26T20:23:52.651Z,24.50
2019-04-26T20:26:22.985Z,21.33
2019-04-26T20:28:55.197Z,23.53
2019-04-26T20:31:48.357Z,23.10
2019-04-26T20:34:21.740Z,23.53
2019-04-26T20:36:53.379Z,25.10
2019-04-26T20:39:25.174Z,22.63
2019-04-26T20:42:01.933Z,27.10
2019-04-26T20:44:47.344Z,28.23
2019-04-26T20:47:03.448Z,27.43
2019-04-26T20:49:47.209Z,28.57
2019-04-26T20:52:08.347Z,29.67
2019-04-26T20:54:41.593Z,28.63
2019-04-26T20:57:13.385Z,27.90
2019-04-26T20:59:45.228Z,29.80
2019-04-26T21:02:20.691Z,27.73
2019-04-26T21:04:51.529Z,29.07
2019-04-26T21:07:23.203Z,27.10
2019-04-26T21:09:54.518Z,28.63
2019-04-26T21:12:25.895Z,29.13
2019-04-26T21:14:57.405Z,28.40
2019-04-26T21:17:28.781Z,27.10
2019-04-26T21:19:59.848Z,27.47
2019-04-26T21:22:31.808Z,28.00
2019-04-26T21:25:08.089Z,27.00
2019-04-26T21:28:06.719Z,29.13
2019-04-26T21:31:10.209Z,28.60
2019-04-26T21:33:45.579Z,28.77
2019-04-26T21:36:34.648Z,27.50
2019-04-26T21:39:24.619Z,29.37
2019-04-26T21:41:55.946Z,30.63
2019-04-26T21:44:27.144Z,31.13
2019-04-26T21:46:59.939Z,30.63
2019-04-26T21:49:32.730Z,29.93
2019-04-26T21:52:04.549Z,30.60
2019-04-26T21:54:35.773Z,29.50
2019-04-26T21:57:07.018Z,32.50
2019-04-26T21:59:40.916Z,34.77
2019-04-26T22:02:11.932Z,35.23
2019-04-26T22:04:43.638Z,34.03
2019-04-26T22:07:14.956Z,33.37
2019-04-26T22:10:05.311Z,32.63
2019-04-26T22:12:35.817Z,33.43
2019-04-26T22:15:29.565Z,33.90
2019-04-26T22:18:06.246Z,37.10
2019-04-26T22:20:48.128Z,38.57
2019-04-26T22:23:26.428Z,40.30
2019-04-26T22:26:00.163Z,40.07
2019-04-26T22:28:35.505Z,37.33
2019-04-26T22:31:07.245Z,36.17
2019-04-26T22:33:36.733Z,38.87
2019-04-26T22:36:08.197Z,37.83
2019-04-26T22:38:39.823Z,40.67
2019-04-26T22:41:11.034Z,42.03
2019-04-26T22:43:54.141Z,37.37
2019-04-26T22:46:46.431Z,39.53
2019-04-26T22:49:08.275Z,39.30
2019-04-26T22:51:39.382Z,36.40
2019-04-26T22:54:10.591Z,36.80
2019-04-26T22:56:43.817Z,35.33
2019-04-26T22:59:14.577Z,36.47
2019-04-26T23:01:48.763Z,35.27
2019-04-26T23:04:23.557Z,32.07
2019-04-26T23:06:54.296Z,33.77
2019-04-26T23:09:25.414Z,33.33
2019-04-26T23:12:04.764Z,32.57
2019-04-26T23:14:55.054Z,35.87
2019-04-26T23:17:51.530Z,33.57
2019-04-26T23:20:37.732Z,30.07
2019-04-26T23:23:08.673Z,30.23
2019-04-26T23:25:40.038Z,31.63
2019-04-26T23:28:11.697Z,30.63
2019-04-26T23:30:44.251Z,31.27
2019-04-26T23:33:15.802Z,29.00
2019-04-26T23:35:47.812Z,30.63
2019-04-26T23:38:18.987Z,32.47
2019-04-26T23:40:50.605Z,36.10
2019-04-26T23:43:25.417Z,32.17
2019-04-26T23:45:55.035Z,33.03
2019-04-26T23:48:26.074Z,31.83
2019-04-26T23:50:59.951Z,30.13
2019-04-26T23:53:30.117Z,30.37
2019-04-26T23:56:01.727Z,30.30
2019-04-26T23:58:32.990Z,28.93
